sensor_id;sensor_type;location;lat;lon;timestamp;P1;durP1;ratioP1;P2;durP2;ratioP2
15486;SDS011;7845;53.698;10.078;2023-06-22T00:01:17;3.20;;;1.70;;
15486;SDS011;7845;53.698;10.078;2023-06-22T00:03:43;3.57;;;2.00;;
15486;SDS011;7845;53.698;10.078;2023-06-22T00:06:09;3.97;;;2.40;;
15486;SDS011;7845;53.698;10.078;2023-06-22T00:08:34;3.40;;;1.77;;
15486;SDS011;7845;53.698;10.078;2023-06-22T00:11:00;3.50;;;1.93;;
15486;SDS011;7845;53.698;10.078;2023-06-22T00:13:25;3.50;;;1.90;;
15486;SDS011;7845;53.698;10.078;2023-06-22T00:15:50;3.30;;;1.80;;
15486;SDS011;7845;53.698;10.078;2023-06-22T00:18:15;3.50;;;1.77;;
15486;SDS011;7845;53.698;10.078;2023-06-22T00:20:41;3.10;;;1.60;;
15486;SDS011;7845;53.698;10.078;2023-06-22T00:23:07;3.30;;;1.90;;
15486;SDS011;7845;53.698;10.078;2023-06-22T00:25:33;3.10;;;1.57;;
15486;SDS011;7845;53.698;10.078;2023-06-22T00:28:02;3.37;;;1.73;;
15486;SDS011;7845;53.698;10.078;2023-06-22T00:30:30;3.27;;;1.80;;
15486;SDS011;7845;53.698;10.078;2023-06-22T00:32:56;3.13;;;1.77;;
15486;SDS011;7845;53.698;10.078;2023-06-22T00:35:21;4.17;;;1.90;;
15486;SDS011;7845;53.698;10.078;2023-06-22T00:37:56;3.30;;;1.60;;
15486;SDS011;7845;53.698;10.078;2023-06-22T00:40:26;3.10;;;1.77;;
15486;SDS011;7845;53.698;10.078;2023-06-22T00:42:52;3.10;;;1.80;;
15486;SDS011;7845;53.698;10.078;2023-06-22T00:45:17;3.50;;;2.20;;
15486;SDS011;7845;53.698;10.078;2023-06-22T00:47:42;3.77;;;2.60;;
15486;SDS011;7845;53.698;10.078;2023-06-22T00:50:09;3.40;;;2.30;;
15486;SDS011;7845;53.698;10.078;2023-06-22T00:52:43;3.03;;;1.70;;
15486;SDS011;7845;53.698;10.078;2023-06-22T00:55:12;3.17;;;1.83;;
15486;SDS011;7845;53.698;10.078;2023-06-22T00:57:37;3.63;;;2.10;;
15486;SDS011;7845;53.698;10.078;2023-06-22T01:00:04;3.17;;;1.77;;
15486;SDS011;7845;53.698;10.078;2023-06-22T01:02:34;3.37;;;2.00;;
15486;SDS011;7845;53.698;10.078;2023-06-22T01:04:59;3.60;;;2.37;;
15486;SDS011;7845;53.698;10.078;2023-06-22T01:07:29;3.27;;;2.00;;
15486;SDS011;7845;53.698;10.078;2023-06-22T01:13:02;3.43;;;2.03;;
15486;SDS011;7845;53.698;10.078;2023-06-22T01:15:39;3.30;;;1.90;;
15486;SDS011;7845;53.698;10.078;2023-06-22T01:18:11;3.40;;;2.07;;
15486;SDS011;7845;53.698;10.078;2023-06-22T01:20:38;3.90;;;2.37;;
15486;SDS011;7845;53.698;10.078;2023-06-22T01:23:09;4.20;;;2.60;;
15486;SDS011;7845;53.698;10.078;2023-06-22T01:25:56;4.37;;;2.23;;
15486;SDS011;7845;53.698;10.078;2023-06-22T01:31:08;3.80;;;2.30;;
15486;SDS011;7845;53.698;10.078;2023-06-22T01:33:37;4.50;;;2.40;;
15486;SDS011;7845;53.698;10.078;2023-06-22T01:36:07;3.90;;;2.37;;
15486;SDS011;7845;53.698;10.078;2023-06-22T01:38:33;3.87;;;2.67;;
15486;SDS011;7845;53.698;10.078;2023-06-22T01:41:00;3.60;;;2.47;;
15486;SDS011;7845;53.698;10.078;2023-06-22T01:43:27;3.70;;;2.27;;
15486;SDS011;7845;53.698;10.078;2023-06-22T01:45:59;4.00;;;2.50;;
15486;SDS011;7845;53.698;10.078;2023-06-22T01:48:26;3.90;;;2.43;;
15486;SDS011;7845;53.698;10.078;2023-06-22T01:50:52;4.73;;;3.03;;
15486;SDS011;7845;53.698;10.078;2023-06-22T01:53:22;3.53;;;2.17;;
15486;SDS011;7845;53.698;10.078;2023-06-22T01:55:48;4.17;;;2.50;;
15486;SDS011;7845;53.698;10.078;2023-06-22T01:58:14;3.70;;;2.10;;
15486;SDS011;7845;53.698;10.078;2023-06-22T02:00:40;3.97;;;2.23;;
15486;SDS011;7845;53.698;10.078;2023-06-22T02:03:14;3.70;;;2.50;;
15486;SDS011;7845;53.698;10.078;2023-06-22T02:05:49;4.10;;;2.30;;
15486;SDS011;7845;53.698;10.078;2023-06-22T02:08:20;5.00;;;2.93;;
15486;SDS011;7845;53.698;10.078;2023-06-22T02:10:48;4.30;;;2.63;;
15486;SDS011;7845;53.698;10.078;2023-06-22T02:13:15;4.00;;;2.57;;
15486;SDS011;7845;53.698;10.078;2023-06-22T02:15:41;4.10;;;2.63;;
15486;SDS011;7845;53.698;10.078;2023-06-22T02:18:07;3.87;;;2.70;;
15486;SDS011;7845;53.698;10.078;2023-06-22T02:20:32;4.00;;;2.73;;
15486;SDS011;7845;53.698;10.078;2023-06-22T02:23:00;4.33;;;3.20;;
15486;SDS011;7845;53.698;10.078;2023-06-22T02:25:26;4.40;;;3.10;;
15486;SDS011;7845;53.698;10.078;2023-06-22T02:27:51;4.00;;;2.70;;
15486;SDS011;7845;53.698;10.078;2023-06-22T02:30:17;4.07;;;2.43;;
15486;SDS011;7845;53.698;10.078;2023-06-22T02:32:42;3.60;;;2.53;;
15486;SDS011;7845;53.698;10.078;2023-06-22T02:35:09;4.33;;;2.93;;
15486;SDS011;7845;53.698;10.078;2023-06-22T02:37:37;4.47;;;2.77;;
15486;SDS011;7845;53.698;10.078;2023-06-22T02:40:07;4.43;;;3.10;;
15486;SDS011;7845;53.698;10.078;2023-06-22T02:42:39;4.17;;;2.87;;
15486;SDS011;7845;53.698;10.078;2023-06-22T02:45:04;4.07;;;2.73;;
15486;SDS011;7845;53.698;10.078;2023-06-22T02:47:30;4.00;;;2.67;;
15486;SDS011;7845;53.698;10.078;2023-06-22T02:49:55;4.30;;;2.87;;
15486;SDS011;7845;53.698;10.078;2023-06-22T02:52:21;3.73;;;2.40;;
15486;SDS011;7845;53.698;10.078;2023-06-22T02:54:46;4.87;;;3.33;;
15486;SDS011;7845;53.698;10.078;2023-06-22T02:57:13;4.30;;;2.93;;
15486;SDS011;7845;53.698;10.078;2023-06-22T02:59:41;3.87;;;2.70;;
15486;SDS011;7845;53.698;10.078;2023-06-22T03:02:07;3.67;;;2.30;;
15486;SDS011;7845;53.698;10.078;2023-06-22T03:04:34;4.47;;;2.50;;
15486;SDS011;7845;53.698;10.078;2023-06-22T03:06:59;4.40;;;2.63;;
15486;SDS011;7845;53.698;10.078;2023-06-22T03:09:26;4.63;;;2.93;;
15486;SDS011;7845;53.698;10.078;2023-06-22T03:11:54;4.53;;;2.80;;
15486;SDS011;7845;53.698;10.078;2023-06-22T03:14:20;4.33;;;2.70;;
15486;SDS011;7845;53.698;10.078;2023-06-22T03:16:45;4.60;;;2.73;;
15486;SDS011;7845;53.698;10.078;2023-06-22T03:19:11;6.43;;;2.80;;
15486;SDS011;7845;53.698;10.078;2023-06-22T03:21:37;4.00;;;2.80;;
15486;SDS011;7845;53.698;10.078;2023-06-22T03:24:07;4.20;;;2.60;;
15486;SDS011;7845;53.698;10.078;2023-06-22T03:26:32;4.40;;;2.73;;
15486;SDS011;7845;53.698;10.078;2023-06-22T03:28:58;5.77;;;2.53;;
15486;SDS011;7845;53.698;10.078;2023-06-22T03:31:23;3.63;;;2.03;;
15486;SDS011;7845;53.698;10.078;2023-06-22T03:33:50;4.33;;;2.97;;
15486;SDS011;7845;53.698;10.078;2023-06-22T03:36:16;3.97;;;2.30;;
15486;SDS011;7845;53.698;10.078;2023-06-22T03:38:45;3.67;;;2.43;;
15486;SDS011;7845;53.698;10.078;2023-06-22T03:41:12;4.30;;;2.93;;
15486;SDS011;7845;53.698;10.078;2023-06-22T03:43:38;4.60;;;2.77;;
15486;SDS011;7845;53.698;10.078;2023-06-22T03:46:03;3.70;;;2.23;;
15486;SDS011;7845;53.698;10.078;2023-06-22T03:48:28;3.73;;;2.30;;
15486;SDS011;7845;53.698;10.078;2023-06-22T03:50:54;4.00;;;2.33;;
15486;SDS011;7845;53.698;10.078;2023-06-22T03:53:19;3.87;;;2.20;;
15486;SDS011;7845;53.698;10.078;2023-06-22T03:55:48;3.57;;;2.40;;
15486;SDS011;7845;53.698;10.078;2023-06-22T03:58:18;3.50;;;2.03;;
15486;SDS011;7845;53.698;10.078;2023-06-22T04:00:45;3.40;;;2.20;;
15486;SDS011;7845;53.698;10.078;2023-06-22T04:03:11;4.00;;;2.13;;
15486;SDS011;7845;53.698;10.078;2023-06-22T04:05:38;3.73;;;1.87;;
15486;SDS011;7845;53.698;10.078;2023-06-22T04:08:04;4.00;;;2.40;;
15486;SDS011;7845;53.698;10.078;2023-06-22T04:10:29;3.80;;;2.07;;
15486;SDS011;7845;53.698;10.078;2023-06-22T04:12:55;3.80;;;2.30;;
15486;SDS011;7845;53.698;10.078;2023-06-22T04:15:20;3.50;;;2.00;;
15486;SDS011;7845;53.698;10.078;2023-06-22T04:17:45;3.83;;;2.50;;
15486;SDS011;7845;53.698;10.078;2023-06-22T04:20:11;3.90;;;2.20;;
15486;SDS011;7845;53.698;10.078;2023-06-22T04:22:36;4.10;;;2.17;;
15486;SDS011;7845;53.698;10.078;2023-06-22T04:25:01;3.47;;;2.00;;
15486;SDS011;7845;53.698;10.078;2023-06-22T04:27:27;3.50;;;1.80;;
15486;SDS011;7845;53.698;10.078;2023-06-22T04:29:52;3.77;;;1.93;;
15486;SDS011;7845;53.698;10.078;2023-06-22T04:32:19;3.83;;;2.23;;
15486;SDS011;7845;53.698;10.078;2023-06-22T04:34:44;3.90;;;2.27;;
15486;SDS011;7845;53.698;10.078;2023-06-22T04:37:09;3.37;;;2.13;;
15486;SDS011;7845;53.698;10.078;2023-06-22T04:39:40;3.37;;;2.10;;
15486;SDS011;7845;53.698;10.078;2023-06-22T04:42:06;3.93;;;2.50;;
15486;SDS011;7845;53.698;10.078;2023-06-22T04:44:31;4.00;;;2.00;;
15486;SDS011;7845;53.698;10.078;2023-06-22T04:46:58;4.10;;;2.10;;
15486;SDS011;7845;53.698;10.078;2023-06-22T04:49:27;3.60;;;2.20;;
15486;SDS011;7845;53.698;10.078;2023-06-22T04:52:01;3.63;;;2.20;;
15486;SDS011;7845;53.698;10.078;2023-06-22T04:54:28;4.53;;;2.70;;
15486;SDS011;7845;53.698;10.078;2023-06-22T04:56:54;4.13;;;2.60;;
15486;SDS011;7845;53.698;10.078;2023-06-22T04:59:22;3.30;;;1.87;;
15486;SDS011;7845;53.698;10.078;2023-06-22T05:01:53;3.67;;;2.00;;
15486;SDS011;7845;53.698;10.078;2023-06-22T05:04:19;4.47;;;2.80;;
15486;SDS011;7845;53.698;10.078;2023-06-22T05:06:45;4.00;;;2.30;;
15486;SDS011;7845;53.698;10.078;2023-06-22T05:09:10;4.60;;;3.00;;
15486;SDS011;7845;53.698;10.078;2023-06-22T05:11:37;4.50;;;2.87;;
15486;SDS011;7845;53.698;10.078;2023-06-22T05:14:03;3.60;;;2.30;;
15486;SDS011;7845;53.698;10.078;2023-06-22T05:16:29;4.30;;;2.40;;
15486;SDS011;7845;53.698;10.078;2023-06-22T05:18:56;4.50;;;2.40;;
15486;SDS011;7845;53.698;10.078;2023-06-22T05:21:26;4.83;;;2.73;;
15486;SDS011;7845;53.698;10.078;2023-06-22T05:23:52;4.40;;;2.40;;
15486;SDS011;7845;53.698;10.078;2023-06-22T05:26:19;4.60;;;3.20;;
15486;SDS011;7845;53.698;10.078;2023-06-22T05:28:45;5.53;;;2.90;;
15486;SDS011;7845;53.698;10.078;2023-06-22T05:31:13;3.87;;;2.27;;
15486;SDS011;7845;53.698;10.078;2023-06-22T05:33:40;5.00;;;3.23;;
15486;SDS011;7845;53.698;10.078;2023-06-22T05:36:06;4.40;;;2.60;;
15486;SDS011;7845;53.698;10.078;2023-06-22T05:38:32;4.83;;;3.17;;
15486;SDS011;7845;53.698;10.078;2023-06-22T05:40:59;4.10;;;2.50;;
15486;SDS011;7845;53.698;10.078;2023-06-22T05:43:25;4.70;;;3.30;;
15486;SDS011;7845;53.698;10.078;2023-06-22T05:45:50;5.90;;;2.33;;
15486;SDS011;7845;53.698;10.078;2023-06-22T05:48:16;4.30;;;2.57;;
15486;SDS011;7845;53.698;10.078;2023-06-22T05:50:41;7.67;;;3.40;;
15486;SDS011;7845;53.698;10.078;2023-06-22T05:53:07;7.70;;;4.03;;
15486;SDS011;7845;53.698;10.078;2023-06-22T05:55:33;4.50;;;2.80;;
15486;SDS011;7845;53.698;10.078;2023-06-22T05:57:58;3.90;;;2.40;;
15486;SDS011;7845;53.698;10.078;2023-06-22T06:00:23;4.13;;;2.30;;
15486;SDS011;7845;53.698;10.078;2023-06-22T06:02:49;4.43;;;2.27;;
15486;SDS011;7845;53.698;10.078;2023-06-22T06:05:14;3.70;;;2.43;;
15486;SDS011;7845;53.698;10.078;2023-06-22T06:07:40;6.13;;;2.30;;
15486;SDS011;7845;53.698;10.078;2023-06-22T06:10:07;4.50;;;1.93;;
15486;SDS011;7845;53.698;10.078;2023-06-22T06:12:33;3.50;;;1.60;;
15486;SDS011;7845;53.698;10.078;2023-06-22T06:14:58;5.67;;;1.83;;
15486;SDS011;7845;53.698;10.078;2023-06-22T06:17:23;4.53;;;2.00;;
15486;SDS011;7845;53.698;10.078;2023-06-22T06:19:49;4.30;;;1.90;;
15486;SDS011;7845;53.698;10.078;2023-06-22T06:22:14;4.37;;;2.30;;
15486;SDS011;7845;53.698;10.078;2023-06-22T06:24:39;3.47;;;1.60;;
15486;SDS011;7845;53.698;10.078;2023-06-22T06:27:05;3.50;;;1.83;;
15486;SDS011;7845;53.698;10.078;2023-06-22T06:29:31;3.00;;;1.50;;
15486;SDS011;7845;53.698;10.078;2023-06-22T06:31:56;3.23;;;1.73;;
15486;SDS011;7845;53.698;10.078;2023-06-22T06:34:22;4.17;;;1.83;;
15486;SDS011;7845;53.698;10.078;2023-06-22T06:36:48;3.40;;;1.70;;
15486;SDS011;7845;53.698;10.078;2023-06-22T06:39:13;4.73;;;1.87;;
15486;SDS011;7845;53.698;10.078;2023-06-22T06:41:39;3.73;;;1.80;;
15486;SDS011;7845;53.698;10.078;2023-06-22T06:44:04;3.00;;;1.60;;
15486;SDS011;7845;53.698;10.078;2023-06-22T06:46:30;3.60;;;1.90;;
15486;SDS011;7845;53.698;10.078;2023-06-22T06:48:55;3.50;;;1.77;;
15486;SDS011;7845;53.698;10.078;2023-06-22T06:51:21;4.47;;;2.20;;
15486;SDS011;7845;53.698;10.078;2023-06-22T06:53:47;3.43;;;2.03;;
15486;SDS011;7845;53.698;10.078;2023-06-22T06:56:13;3.60;;;1.80;;
15486;SDS011;7845;53.698;10.078;2023-06-22T06:58:40;3.90;;;2.00;;
15486;SDS011;7845;53.698;10.078;2023-06-22T07:01:07;3.60;;;2.20;;
15486;SDS011;7845;53.698;10.078;2023-06-22T07:03:33;3.20;;;1.80;;
15486;SDS011;7845;53.698;10.078;2023-06-22T07:05:59;3.70;;;2.17;;
15486;SDS011;7845;53.698;10.078;2023-06-22T07:08:24;3.27;;;2.20;;
15486;SDS011;7845;53.698;10.078;2023-06-22T07:10:51;3.77;;;2.17;;
15486;SDS011;7845;53.698;10.078;2023-06-22T07:13:17;4.83;;;2.03;;
15486;SDS011;7845;53.698;10.078;2023-06-22T07:15:42;3.87;;;1.70;;
15486;SDS011;7845;53.698;10.078;2023-06-22T07:18:07;3.40;;;2.00;;
15486;SDS011;7845;53.698;10.078;2023-06-22T07:20:33;4.13;;;2.37;;
15486;SDS011;7845;53.698;10.078;2023-06-22T07:22:58;3.83;;;2.30;;
15486;SDS011;7845;53.698;10.078;2023-06-22T07:25:23;4.00;;;2.00;;
15486;SDS011;7845;53.698;10.078;2023-06-22T07:28:01;4.13;;;2.37;;
15486;SDS011;7845;53.698;10.078;2023-06-22T07:30:29;3.43;;;1.90;;
15486;SDS011;7845;53.698;10.078;2023-06-22T07:32:56;3.30;;;1.90;;
15486;SDS011;7845;53.698;10.078;2023-06-22T07:35:23;3.20;;;1.83;;
15486;SDS011;7845;53.698;10.078;2023-06-22T07:37:48;4.80;;;2.20;;
15486;SDS011;7845;53.698;10.078;2023-06-22T07:40:14;3.20;;;1.70;;
15486;SDS011;7845;53.698;10.078;2023-06-22T07:42:39;4.07;;;2.00;;
15486;SDS011;7845;53.698;10.078;2023-06-22T07:45:05;3.63;;;1.80;;
15486;SDS011;7845;53.698;10.078;2023-06-22T07:47:33;4.10;;;1.90;;
15486;SDS011;7845;53.698;10.078;2023-06-22T07:50:00;3.23;;;1.60;;
15486;SDS011;7845;53.698;10.078;2023-06-22T07:52:26;4.37;;;2.10;;
15486;SDS011;7845;53.698;10.078;2023-06-22T07:54:52;3.70;;;1.90;;
15486;SDS011;7845;53.698;10.078;2023-06-22T07:57:18;4.67;;;2.00;;
15486;SDS011;7845;53.698;10.078;2023-06-22T07:59:43;2.80;;;1.50;;
15486;SDS011;7845;53.698;10.078;2023-06-22T08:02:09;3.43;;;1.97;;
15486;SDS011;7845;53.698;10.078;2023-06-22T08:04:35;3.40;;;1.53;;
15486;SDS011;7845;53.698;10.078;2023-06-22T08:07:01;3.47;;;1.80;;
15486;SDS011;7845;53.698;10.078;2023-06-22T08:09:30;3.67;;;2.00;;
15486;SDS011;7845;53.698;10.078;2023-06-22T08:11:58;3.07;;;1.70;;
15486;SDS011;7845;53.698;10.078;2023-06-22T08:14:24;3.77;;;2.47;;
15486;SDS011;7845;53.698;10.078;2023-06-22T08:16:50;3.23;;;2.00;;
15486;SDS011;7845;53.698;10.078;2023-06-22T08:19:16;3.20;;;1.80;;
15486;SDS011;7845;53.698;10.078;2023-06-22T08:21:42;2.93;;;1.53;;
15486;SDS011;7845;53.698;10.078;2023-06-22T08:24:07;2.80;;;1.30;;
15486;SDS011;7845;53.698;10.078;2023-06-22T08:26:33;3.83;;;1.67;;
15486;SDS011;7845;53.698;10.078;2023-06-22T08:29:02;3.23;;;1.50;;
15486;SDS011;7845;53.698;10.078;2023-06-22T08:31:27;3.33;;;1.37;;
15486;SDS011;7845;53.698;10.078;2023-06-22T08:33:53;3.23;;;1.50;;
15486;SDS011;7845;53.698;10.078;2023-06-22T08:36:19;3.00;;;1.77;;
15486;SDS011;7845;53.698;10.078;2023-06-22T08:38:45;3.07;;;1.60;;
15486;SDS011;7845;53.698;10.078;2023-06-22T08:41:16;3.50;;;1.93;;
15486;SDS011;7845;53.698;10.078;2023-06-22T08:43:43;5.37;;;2.20;;
15486;SDS011;7845;53.698;10.078;2023-06-22T08:46:12;4.13;;;2.20;;
15486;SDS011;7845;53.698;10.078;2023-06-22T08:48:38;4.67;;;2.43;;
15486;SDS011;7845;53.698;10.078;2023-06-22T08:51:06;3.50;;;1.93;;
15486;SDS011;7845;53.698;10.078;2023-06-22T08:53:31;3.90;;;1.77;;
15486;SDS011;7845;53.698;10.078;2023-06-22T08:55:57;3.43;;;1.80;;
15486;SDS011;7845;53.698;10.078;2023-06-22T08:58:22;2.63;;;1.30;;
15486;SDS011;7845;53.698;10.078;2023-06-22T09:00:50;2.60;;;1.30;;
15486;SDS011;7845;53.698;10.078;2023-06-22T09:03:16;3.03;;;1.30;;
15486;SDS011;7845;53.698;10.078;2023-06-22T09:05:41;4.00;;;1.80;;
15486;SDS011;7845;53.698;10.078;2023-06-22T09:08:07;3.67;;;2.03;;
15486;SDS011;7845;53.698;10.078;2023-06-22T09:10:33;4.17;;;2.10;;
15486;SDS011;7845;53.698;10.078;2023-06-22T09:12:59;4.00;;;2.40;;
15486;SDS011;7845;53.698;10.078;2023-06-22T09:15:24;3.60;;;2.10;;
15486;SDS011;7845;53.698;10.078;2023-06-22T09:17:50;3.60;;;2.27;;
15486;SDS011;7845;53.698;10.078;2023-06-22T09:20:16;2.90;;;1.60;;
15486;SDS011;7845;53.698;10.078;2023-06-22T09:22:41;2.90;;;1.70;;
15486;SDS011;7845;53.698;10.078;2023-06-22T09:25:07;3.43;;;1.73;;
15486;SDS011;7845;53.698;10.078;2023-06-22T09:27:33;3.33;;;2.03;;
15486;SDS011;7845;53.698;10.078;2023-06-22T09:29:58;3.40;;;1.90;;
15486;SDS011;7845;53.698;10.078;2023-06-22T09:32:24;2.93;;;1.60;;
15486;SDS011;7845;53.698;10.078;2023-06-22T09:34:51;2.57;;;1.40;;
15486;SDS011;7845;53.698;10.078;2023-06-22T09:37:17;3.00;;;1.40;;
15486;SDS011;7845;53.698;10.078;2023-06-22T09:39:44;4.90;;;2.30;;
15486;SDS011;7845;53.698;10.078;2023-06-22T09:42:09;4.47;;;2.40;;
15486;SDS011;7845;53.698;10.078;2023-06-22T09:44:35;3.73;;;2.60;;
15486;SDS011;7845;53.698;10.078;2023-06-22T09:47:00;4.13;;;2.60;;
15486;SDS011;7845;53.698;10.078;2023-06-22T09:49:26;3.33;;;1.97;;
15486;SDS011;7845;53.698;10.078;2023-06-22T09:51:51;3.37;;;2.00;;
15486;SDS011;7845;53.698;10.078;2023-06-22T09:54:17;3.93;;;2.47;;
15486;SDS011;7845;53.698;10.078;2023-06-22T09:56:43;4.77;;;2.10;;
15486;SDS011;7845;53.698;10.078;2023-06-22T09:59:08;3.27;;;2.37;;
15486;SDS011;7845;53.698;10.078;2023-06-22T10:01:33;4.20;;;2.70;;
15486;SDS011;7845;53.698;10.078;2023-06-22T10:03:59;3.20;;;1.80;;
15486;SDS011;7845;53.698;10.078;2023-06-22T10:06:24;3.10;;;1.73;;
15486;SDS011;7845;53.698;10.078;2023-06-22T10:08:50;3.30;;;1.70;;
15486;SDS011;7845;53.698;10.078;2023-06-22T10:11:17;3.57;;;1.93;;
15486;SDS011;7845;53.698;10.078;2023-06-22T10:13:42;4.27;;;2.30;;
15486;SDS011;7845;53.698;10.078;2023-06-22T10:16:08;3.70;;;2.17;;
15486;SDS011;7845;53.698;10.078;2023-06-22T10:18:35;3.00;;;1.70;;
15486;SDS011;7845;53.698;10.078;2023-06-22T10:21:00;3.40;;;1.90;;
15486;SDS011;7845;53.698;10.078;2023-06-22T10:23:25;3.17;;;1.90;;
15486;SDS011;7845;53.698;10.078;2023-06-22T10:25:51;3.20;;;1.53;;
15486;SDS011;7845;53.698;10.078;2023-06-22T10:28:16;3.57;;;1.80;;
15486;SDS011;7845;53.698;10.078;2023-06-22T10:30:41;2.97;;;1.80;;
15486;SDS011;7845;53.698;10.078;2023-06-22T10:33:08;3.70;;;1.97;;
15486;SDS011;7845;53.698;10.078;2023-06-22T10:35:34;3.47;;;1.77;;
15486;SDS011;7845;53.698;10.078;2023-06-22T10:37:59;3.40;;;2.00;;
15486;SDS011;7845;53.698;10.078;2023-06-22T10:40:25;3.97;;;2.23;;
15486;SDS011;7845;53.698;10.078;2023-06-22T10:42:50;2.80;;;1.70;;
15486;SDS011;7845;53.698;10.078;2023-06-22T10:45:15;2.87;;;1.57;;
15486;SDS011;7845;53.698;10.078;2023-06-22T10:47:41;4.50;;;2.70;;
15486;SDS011;7845;53.698;10.078;2023-06-22T10:50:07;4.10;;;2.03;;
15486;SDS011;7845;53.698;10.078;2023-06-22T10:52:33;3.83;;;2.50;;
15486;SDS011;7845;53.698;10.078;2023-06-22T10:54:58;4.60;;;1.70;;
15486;SDS011;7845;53.698;10.078;2023-06-22T10:57:24;3.50;;;2.20;;
15486;SDS011;7845;53.698;10.078;2023-06-22T10:59:49;3.40;;;1.80;;
15486;SDS011;7845;53.698;10.078;2023-06-22T11:02:14;3.50;;;2.00;;
15486;SDS011;7845;53.698;10.078;2023-06-22T11:04:40;3.40;;;2.10;;
15486;SDS011;7845;53.698;10.078;2023-06-22T11:07:05;3.80;;;2.23;;
15486;SDS011;7845;53.698;10.078;2023-06-22T11:09:31;3.40;;;2.07;;
15486;SDS011;7845;53.698;10.078;2023-06-22T11:11:56;3.20;;;1.80;;
15486;SDS011;7845;53.698;10.078;2023-06-22T11:14:23;4.20;;;2.53;;
15486;SDS011;7845;53.698;10.078;2023-06-22T11:16:49;3.47;;;2.03;;
15486;SDS011;7845;53.698;10.078;2023-06-22T11:19:14;4.07;;;2.37;;
15486;SDS011;7845;53.698;10.078;2023-06-22T11:21:40;3.60;;;2.13;;
15486;SDS011;7845;53.698;10.078;2023-06-22T11:24:05;3.10;;;1.90;;
15486;SDS011;7845;53.698;10.078;2023-06-22T11:26:31;3.50;;;2.00;;
15486;SDS011;7845;53.698;10.078;2023-06-22T11:28:57;3.13;;;1.67;;
15486;SDS011;7845;53.698;10.078;2023-06-22T11:31:23;4.40;;;2.40;;
15486;SDS011;7845;53.698;10.078;2023-06-22T11:33:49;5.80;;;2.90;;
15486;SDS011;7845;53.698;10.078;2023-06-22T11:36:14;3.50;;;2.20;;
15486;SDS011;7845;53.698;10.078;2023-06-22T11:38:40;3.30;;;1.90;;
15486;SDS011;7845;53.698;10.078;2023-06-22T11:41:06;4.20;;;2.00;;
15486;SDS011;7845;53.698;10.078;2023-06-22T11:43:32;3.70;;;2.07;;
15486;SDS011;7845;53.698;10.078;2023-06-22T11:45:58;3.00;;;1.83;;
15486;SDS011;7845;53.698;10.078;2023-06-22T11:48:24;3.33;;;2.00;;
15486;SDS011;7845;53.698;10.078;2023-06-22T11:50:50;3.57;;;2.27;;
15486;SDS011;7845;53.698;10.078;2023-06-22T11:53:15;3.60;;;2.27;;
15486;SDS011;7845;53.698;10.078;2023-06-22T11:55:42;5.07;;;2.60;;
15486;SDS011;7845;53.698;10.078;2023-06-22T11:58:08;4.83;;;2.77;;
15486;SDS011;7845;53.698;10.078;2023-06-22T12:00:33;3.33;;;2.33;;
15486;SDS011;7845;53.698;10.078;2023-06-22T12:02:58;3.43;;;2.60;;
15486;SDS011;7845;53.698;10.078;2023-06-22T12:05:24;4.73;;;3.30;;
15486;SDS011;7845;53.698;10.078;2023-06-22T12:07:50;3.50;;;2.30;;
15486;SDS011;7845;53.698;10.078;2023-06-22T12:10:15;4.00;;;2.70;;
15486;SDS011;7845;53.698;10.078;2023-06-22T12:12:41;4.37;;;2.70;;
15486;SDS011;7845;53.698;10.078;2023-06-22T12:15:08;3.67;;;2.60;;
15486;SDS011;7845;53.698;10.078;2023-06-22T12:17:34;4.27;;;2.80;;
15486;SDS011;7845;53.698;10.078;2023-06-22T12:19:59;4.13;;;2.63;;
15486;SDS011;7845;53.698;10.078;2023-06-22T12:22:25;4.53;;;3.40;;
15486;SDS011;7845;53.698;10.078;2023-06-22T12:24:50;3.60;;;2.60;;
15486;SDS011;7845;53.698;10.078;2023-06-22T12:27:16;4.03;;;2.63;;
15486;SDS011;7845;53.698;10.078;2023-06-22T12:29:43;5.20;;;3.40;;
15486;SDS011;7845;53.698;10.078;2023-06-22T12:32:08;4.93;;;2.80;;
15486;SDS011;7845;53.698;10.078;2023-06-22T12:34:33;3.57;;;2.50;;
15486;SDS011;7845;53.698;10.078;2023-06-22T12:36:59;4.70;;;2.80;;
15486;SDS011;7845;53.698;10.078;2023-06-22T12:39:24;5.03;;;3.13;;
15486;SDS011;7845;53.698;10.078;2023-06-22T12:41:50;4.37;;;3.67;;
15486;SDS011;7845;53.698;10.078;2023-06-22T12:44:16;4.13;;;3.03;;
15486;SDS011;7845;53.698;10.078;2023-06-22T12:46:42;4.00;;;2.83;;
15486;SDS011;7845;53.698;10.078;2023-06-22T12:49:07;3.80;;;2.67;;
15486;SDS011;7845;53.698;10.078;2023-06-22T12:51:32;4.17;;;3.17;;
15486;SDS011;7845;53.698;10.078;2023-06-22T12:53:59;4.37;;;2.90;;
15486;SDS011;7845;53.698;10.078;2023-06-22T12:56:24;5.87;;;3.87;;
15486;SDS011;7845;53.698;10.078;2023-06-22T12:58:49;3.57;;;2.43;;
15486;SDS011;7845;53.698;10.078;2023-06-22T13:01:15;3.40;;;2.30;;
15486;SDS011;7845;53.698;10.078;2023-06-22T13:03:41;3.40;;;2.60;;
15486;SDS011;7845;53.698;10.078;2023-06-22T13:06:07;3.50;;;2.30;;
15486;SDS011;7845;53.698;10.078;2023-06-22T13:08:32;4.93;;;2.60;;
15486;SDS011;7845;53.698;10.078;2023-06-22T13:11:01;4.40;;;3.07;;
15486;SDS011;7845;53.698;10.078;2023-06-22T13:13:26;4.37;;;3.60;;
15486;SDS011;7845;53.698;10.078;2023-06-22T13:15:54;3.80;;;3.00;;
15486;SDS011;7845;53.698;10.078;2023-06-22T13:18:19;3.87;;;2.97;;
15486;SDS011;7845;53.698;10.078;2023-06-22T13:20:47;4.10;;;3.07;;
15486;SDS011;7845;53.698;10.078;2023-06-22T13:23:12;4.13;;;3.07;;
15486;SDS011;7845;53.698;10.078;2023-06-22T13:25:37;3.93;;;2.87;;
15486;SDS011;7845;53.698;10.078;2023-06-22T13:28:03;5.23;;;3.37;;
15486;SDS011;7845;53.698;10.078;2023-06-22T13:30:28;5.30;;;3.40;;
15486;SDS011;7845;53.698;10.078;2023-06-22T13:32:56;3.80;;;3.03;;
15486;SDS011;7845;53.698;10.078;2023-06-22T13:35:22;4.27;;;3.60;;
15486;SDS011;7845;53.698;10.078;2023-06-22T13:37:47;4.00;;;3.23;;
15486;SDS011;7845;53.698;10.078;2023-06-22T13:40:12;4.70;;;3.67;;
15486;SDS011;7845;53.698;10.078;2023-06-22T13:42:38;4.40;;;3.50;;
15486;SDS011;7845;53.698;10.078;2023-06-22T13:45:04;4.10;;;3.03;;
15486;SDS011;7845;53.698;10.078;2023-06-22T13:47:30;4.27;;;3.60;;
15486;SDS011;7845;53.698;10.078;2023-06-22T13:49:55;4.00;;;3.10;;
15486;SDS011;7845;53.698;10.078;2023-06-22T13:52:22;5.27;;;3.80;;
15486;SDS011;7845;53.698;10.078;2023-06-22T13:54:48;4.70;;;3.00;;
15486;SDS011;7845;53.698;10.078;2023-06-22T13:57:13;4.33;;;3.83;;
15486;SDS011;7845;53.698;10.078;2023-06-22T13:59:38;4.63;;;3.27;;
15486;SDS011;7845;53.698;10.078;2023-06-22T14:02:03;4.27;;;3.07;;
15486;SDS011;7845;53.698;10.078;2023-06-22T14:04:29;3.60;;;2.80;;
15486;SDS011;7845;53.698;10.078;2023-06-22T14:06:54;4.07;;;2.40;;
15486;SDS011;7845;53.698;10.078;2023-06-22T14:09:21;3.83;;;2.90;;
15486;SDS011;7845;53.698;10.078;2023-06-22T14:11:46;3.03;;;2.20;;
15486;SDS011;7845;53.698;10.078;2023-06-22T14:14:11;3.20;;;2.40;;
15486;SDS011;7845;53.698;10.078;2023-06-22T14:16:37;4.00;;;3.00;;
15486;SDS011;7845;53.698;10.078;2023-06-22T14:19:02;3.70;;;2.80;;
15486;SDS011;7845;53.698;10.078;2023-06-22T14:21:27;5.80;;;2.90;;
15486;SDS011;7845;53.698;10.078;2023-06-22T14:23:54;3.70;;;2.90;;
15486;SDS011;7845;53.698;10.078;2023-06-22T14:26:19;4.33;;;3.20;;
15486;SDS011;7845;53.698;10.078;2023-06-22T14:28:45;4.50;;;3.10;;
15486;SDS011;7845;53.698;10.078;2023-06-22T14:31:15;4.17;;;2.60;;
15486;SDS011;7845;53.698;10.078;2023-06-22T14:33:45;4.30;;;3.00;;
15486;SDS011;7845;53.698;10.078;2023-06-22T14:36:12;3.77;;;2.70;;
15486;SDS011;7845;53.698;10.078;2023-06-22T14:38:37;5.47;;;3.33;;
15486;SDS011;7845;53.698;10.078;2023-06-22T14:41:02;4.03;;;3.03;;
15486;SDS011;7845;53.698;10.078;2023-06-22T14:43:28;3.80;;;3.00;;
15486;SDS011;7845;53.698;10.078;2023-06-22T14:45:53;3.87;;;2.80;;
15486;SDS011;7845;53.698;10.078;2023-06-22T14:48:18;3.80;;;2.47;;